Chang Sheng — V3PK — position and weather

sailwx.info

Track history (hours):
 
Tides and Currents Weather Stations Pressure Air Temp Water Temp Dewpoint Dewpoint Depression Visibility Wind Speed Wind Dir Waves Ship Positions

Chang Sheng

Last reported at 2016-Feb-08 11:31 UTC. Time now 2016-Feb-10 00:46 UTC.
Position N 31°07' E 121°56'.

Length 86 m; draft 4.8 m.

Type: Cargo ship. MMSI: 312161000.

Date/timePositionNaut miles runAvg speedWind from/ knotsBaromVisibWave heightAir tempDewpointWater temp
2016-Feb-08 11:31N 31°07' E 121°56'1412.6
2016-Feb-08 10:26N 31°17' E 121°44'1112.1
2016-Feb-08 09:33N 31°23' E 121°35'1111.1
2016-Feb-08 08:33N 31°30' E 121°24'1010.4
2016-Feb-08 07:33N 31°37' E 121°15'9 9.0
2016-Feb-08 06:33N 31°43' E 121°07'8 7.6
2016-Feb-08 05:33N 31°47' E 120°59'8 7.3
2016-Feb-08 04:29N 31°52' E 120°53'9 9.9
2016-Feb-08 03:33N 32°00' E 120°47'1111.5
2016-Feb-08 02:33N 32°02' E 120°34'10 9.0
2016-Feb-08 01:29N 32°01' E 120°23'2 0.1
2016-Feb-07 04:31N 31°60' E 120°22'10 0.7
2016-Feb-06 14:25N 31°55' E 120°11'1 0.1
2016-Feb-05 23:29N 31°56' E 120°12'8 7.8
2016-Feb-05 22:25N 31°59' E 120°21'7 8.5
2016-Feb-05 21:33N 32°04' E 120°28'8 7.8
2016-Feb-05 20:33N 32°01' E 120°36'8 8.3
2016-Feb-05 19:33N 32°01' E 120°46'10 8.5
2016-Feb-05 18:26N 31°54' E 120°53'8 9.0
2016-Feb-05 17:33N 31°47' E 120°58'10 9.9
2016-Feb-05 16:32N 31°42' E 121°09'1010.6
2016-Feb-05 15:33N 31°35' E 121°18'1110.7
2016-Feb-05 14:33N 31°28' E 121°27'9 8.5
2016-Feb-05 13:33N 31°23' E 121°35'10 9.6
2016-Feb-05 12:29N 31°17' E 121°45'1111.6
2016-Feb-05 11:32N 31°09' E 121°54'  
Track history (hours):
 
Tides and Currents Weather Stations Pressure Air Temp Water Temp Dewpoint Dewpoint Depression Visibility Wind Speed Wind Dir Waves Ship Positions

Chang Sheng

Last reported at 2016-Feb-08 11:31 UTC. Time now 2016-Feb-10 00:46 UTC.
Position N 31°07' E 121°56'.

Length 86 m; draft 4.8 m.

Type: Cargo ship. MMSI: 312161000.

Date/timePositionNaut miles runAvg speedWind from/ knotsBaromVisibWave heightAir tempDewpointWater temp
2016-Feb-08 11:31N 31°07' E 121°56'1412.6
2016-Feb-08 10:26N 31°17' E 121°44'1112.1
2016-Feb-08 09:33N 31°23' E 121°35'1111.1
2016-Feb-08 08:33N 31°30' E 121°24'1010.4
2016-Feb-08 07:33N 31°37' E 121°15'9 9.0
2016-Feb-08 06:33N 31°43' E 121°07'8 7.6
2016-Feb-08 05:33N 31°47' E 120°59'8 7.3
2016-Feb-08 04:29N 31°52' E 120°53'9 9.9
2016-Feb-08 03:33N 32°00' E 120°47'1111.5
2016-Feb-08 02:33N 32°02' E 120°34'10 9.0
2016-Feb-08 01:29N 32°01' E 120°23'2 0.1
2016-Feb-07 04:31N 31°60' E 120°22'10 0.7
2016-Feb-06 14:25N 31°55' E 120°11'1 0.1
2016-Feb-05 23:29N 31°56' E 120°12'8 7.8
2016-Feb-05 22:25N 31°59' E 120°21'7 8.5
2016-Feb-05 21:33N 32°04' E 120°28'8 7.8
2016-Feb-05 20:33N 32°01' E 120°36'8 8.3
2016-Feb-05 19:33N 32°01' E 120°46'10 8.5
2016-Feb-05 18:26N 31°54' E 120°53'8 9.0
2016-Feb-05 17:33N 31°47' E 120°58'10 9.9
2016-Feb-05 16:32N 31°42' E 121°09'1010.6
2016-Feb-05 15:33N 31°35' E 121°18'1110.7
2016-Feb-05 14:33N 31°28' E 121°27'9 8.5
2016-Feb-05 13:33N 31°23' E 121°35'10 9.6
2016-Feb-05 12:29N 31°17' E 121°45'1111.6
2016-Feb-05 11:32N 31°09' E 121°54'  

Dump ship's entire track history